Lotniskowe dane METAR     LIEE Cagliari Elmas Airport
Temperatura
8°C Temperatura
6°C Punkt rosy
87% Wilgotność



Wiatr
10 KM/H
6 MPH
3 M/S
5 KTS



360°
Północ
Warunki bieżące

Pochmurno Pochmurno
Ciśnienie 1027.92 (hPa) - 30.35 (inHg)
Widoczność 6.2 (mil) - 10 (km)
Lotnisko
Kod lotniska LIEE

Położenie: Cagliari Elmas Airport
Odległość: 14 (km)

Metar:
LIEE 280850Z 36005KT 9999 BKN038 08/06 Q1028

Czas: 28-01-2022 09:50 CET